Time;durP1;ratioP1;P1;durP2;ratioP2;P2;SDS_P1;SDS_P2;PMS_P1;PMS_P2;Temp;Humidity;BMP_temperature;BMP_pressure;BME280_temperature;BME280_humidity;BME280_pressure;Samples;Min_cycle;Max_cycle;Signal;HPM_P1;HPM_P2
2021/09/04 00:01:14;;;;;;;11.20;6.45;;;;;;;;;;5073868;28;20470;-74
2021/09/04 00:03:40;;;;;;;8.02;6.13;;;;;;;;;;5074078;28;20024;-64
2021/09/04 00:06:06;;;;;;;10.38;6.93;;;;;;;;;;5073902;28;20025;-64
2021/09/04 00:08:32;;;;;;;7.80;6.10;;;;;;;;;;5073874;28;20103;-63
2021/09/04 00:10:58;;;;;;;9.57;5.65;;;;;;;;;;5073831;28;20024;-64
2021/09/04 00:13:24;;;;;;;12.32;6.68;;;;;;;;;;5073577;28;20044;-64
2021/09/04 00:15:50;;;;;;;10.10;7.00;;;;;;;;;;5073775;28;20029;-64
2021/09/04 00:18:16;;;;;;;7.97;6.50;;;;;;;;;;5073445;28;20035;-64
2021/09/04 00:20:42;;;;;;;8.35;6.85;;;;;;;;;;5073821;28;20024;-63
2021/09/04 00:23:08;;;;;;;8.65;6.32;;;;;;;;;;5055040;28;20045;-64
2021/09/04 00:25:34;;;;;;;8.75;6.43;;;;;;;;;;5073576;28;20066;-64
2021/09/04 00:28:00;;;;;;;10.73;6.70;;;;;;;;;;5073357;28;20850;-65
2021/09/04 00:30:26;;;;;;;9.25;6.72;;;;;;;;;;5073143;28;20028;-64
2021/09/04 00:32:52;;;;;;;6.93;6.05;;;;;;;;;;5073479;28;20043;-64
2021/09/04 00:35:18;;;;;;;11.00;6.65;;;;;;;;;;5073315;28;20166;-64
2021/09/04 00:37:44;;;;;;;7.55;6.07;;;;;;;;;;5073054;28;20358;-64
2021/09/04 00:40:10;;;;;;;7.38;6.55;;;;;;;;;;5073206;28;20037;-64
2021/09/04 00:42:36;;;;;;;10.55;6.88;;;;;;;;;;5073261;28;20071;-65
2021/09/04 00:45:03;;;;;;;8.45;6.25;;;;;;;;;;5054971;28;20590;-64
2021/09/04 00:47:29;;;;;;;7.57;5.93;;;;;;;;;;5055503;28;20063;-64
2021/09/04 00:49:55;;;;;;;10.65;6.32;;;;;;;;;;5073094;28;20056;-64
2021/09/04 00:52:21;;;;;;;10.93;6.47;;;;;;;;;;5072964;28;20115;-64
2021/09/04 00:54:47;;;;;;;8.25;6.82;;;;;;;;;;5072848;28;20032;-64
2021/09/04 00:57:13;;;;;;;9.85;7.00;;;;;;;;;;5072858;28;20446;-63
2021/09/04 00:59:39;;;;;;;9.57;6.97;;;;;;;;;;5072879;28;20021;-64
2021/09/04 01:02:05;;;;;;;9.57;6.25;;;;;;;;;;5072939;28;20476;-64
2021/09/04 01:04:31;;;;;;;9.63;6.50;;;;;;;;;;5072772;28;20031;-64
2021/09/04 01:06:57;;;;;;;8.38;6.47;;;;;;;;;;5073059;28;20032;-64
2021/09/04 01:09:23;;;;;;;6.85;5.97;;;;;;;;;;5072476;28;20020;-76
2021/09/04 01:11:49;;;;;;;11.32;6.72;;;;;;;;;;5072812;28;20446;-63
2021/09/04 01:14:15;;;;;;;7.68;5.93;;;;;;;;;;5072791;28;20487;-64
2021/09/04 01:16:42;;;;;;;8.77;6.32;;;;;;;;;;5054952;28;20202;-64
2021/09/04 01:19:09;;;;;;;7.20;6.20;;;;;;;;;;5054821;28;20036;-76
2021/09/04 01:21:35;;;;;;;8.82;6.68;;;;;;;;;;5054673;28;20123;-64
2021/09/04 01:24:02;;;;;;;9.45;6.50;;;;;;;;;;5054694;28;20033;-64
2021/09/04 01:26:28;;;;;;;9.90;7.43;;;;;;;;;;5054804;28;20021;-64
2021/09/04 01:28:55;;;;;;;8.40;6.35;;;;;;;;;;5072664;28;20029;-64
2021/09/04 01:31:22;;;;;;;8.13;6.25;;;;;;;;;;5072598;28;20111;-64
2021/09/04 01:33:48;;;;;;;8.43;6.35;;;;;;;;;;5072700;28;20495;-64
2021/09/04 01:36:26;;;;;;;7.90;6.80;;;;;;;;;;5072515;28;20048;-64
2021/09/04 01:38:52;;;;;;;10.75;6.63;;;;;;;;;;5072308;28;20382;-64
2021/09/04 01:41:18;;;;;;;9.82;6.78;;;;;;;;;;5072599;28;20099;-63
2021/09/04 01:43:44;;;;;;;10.40;6.68;;;;;;;;;;5072492;28;20099;-64
2021/09/04 01:46:10;;;;;;;8.55;6.15;;;;;;;;;;5072527;28;20040;-64
2021/09/04 01:48:36;;;;;;;8.23;6.53;;;;;;;;;;5072475;28;20099;-64
2021/09/04 01:51:02;;;;;;;9.32;6.55;;;;;;;;;;5072262;28;20436;-64
2021/09/04 01:53:28;;;;;;;8.05;6.35;;;;;;;;;;5072244;28;20071;-63
2021/09/04 01:55:54;;;;;;;8.20;6.32;;;;;;;;;;5072903;28;20017;-63
2021/09/04 01:58:20;;;;;;;8.23;6.07;;;;;;;;;;5072490;28;20451;-63
2021/09/04 02:00:46;;;;;;;7.80;6.20;;;;;;;;;;5072344;28;20025;-64
2021/09/04 02:03:12;;;;;;;8.77;6.30;;;;;;;;;;5072165;28;20056;-64
2021/09/04 02:05:38;;;;;;;10.10;6.43;;;;;;;;;;5072225;28;20029;-75
2021/09/04 02:08:04;;;;;;;9.10;6.07;;;;;;;;;;5072427;28;20444;-64
2021/09/04 02:10:30;;;;;;;7.85;6.30;;;;;;;;;;5072202;28;20033;-72
2021/09/04 02:12:56;;;;;;;7.88;6.00;;;;;;;;;;5054293;28;20068;-64
2021/09/04 02:15:22;;;;;;;8.82;6.38;;;;;;;;;;5071863;28;20067;-66
2021/09/04 02:17:48;;;;;;;8.82;6.70;;;;;;;;;;5074102;28;20033;-64
2021/09/04 02:20:14;;;;;;;8.43;6.43;;;;;;;;;;5058201;28;20415;-64
2021/09/04 02:22:40;;;;;;;8.25;6.32;;;;;;;;;;5075456;28;20101;-64
2021/09/04 02:25:07;;;;;;;10.75;6.43;;;;;;;;;;5075512;28;20029;-64
2021/09/04 02:27:33;;;;;;;7.55;6.50;;;;;;;;;;5075781;28;20021;-64
2021/09/04 02:29:59;;;;;;;8.30;6.35;;;;;;;;;;5075851;28;20414;-63
2021/09/04 02:32:25;;;;;;;10.90;6.40;;;;;;;;;;5075563;28;20063;-63
2021/09/04 02:34:51;;;;;;;8.82;5.93;;;;;;;;;;5075906;28;20020;-64
2021/09/04 02:37:17;;;;;;;8.93;6.72;;;;;;;;;;5075390;28;20146;-63
2021/09/04 02:39:44;;;;;;;7.93;5.97;;;;;;;;;;5075589;28;20118;-64
2021/09/04 02:42:10;;;;;;;8.65;5.95;;;;;;;;;;5075796;28;20444;-63
2021/09/04 02:44:36;;;;;;;9.18;6.40;;;;;;;;;;5075473;28;20048;-64
2021/09/04 02:47:03;;;;;;;7.75;5.90;;;;;;;;;;5075468;28;20067;-75
2021/09/04 02:49:29;;;;;;;7.68;5.90;;;;;;;;;;5075473;28;20515;-63
2021/09/04 02:51:55;;;;;;;8.30;6.30;;;;;;;;;;5057076;28;20500;-64
2021/09/04 02:54:21;;;;;;;7.88;6.70;;;;;;;;;;5075153;28;20115;-64
2021/09/04 02:56:46;;;;;;;7.45;6.07;;;;;;;;;;5075377;28;20445;-64
2021/09/04 02:59:12;;;;;;;7.40;6.05;;;;;;;;;;5075283;28;20411;-64
2021/09/04 03:01:38;;;;;;;8.00;6.13;;;;;;;;;;5057093;28;20060;-64
2021/09/04 03:04:04;;;;;;;10.63;6.88;;;;;;;;;;5074976;28;20031;-64
2021/09/04 03:06:30;;;;;;;8.52;6.18;;;;;;;;;;5075006;28;20033;-64
2021/09/04 03:08:56;;;;;;;7.57;5.97;;;;;;;;;;5074954;28;20099;-64
2021/09/04 03:11:23;;;;;;;8.48;5.80;;;;;;;;;;5074797;28;20036;-64
2021/09/04 03:13:49;;;;;;;8.82;6.45;;;;;;;;;;5074888;28;20025;-64
2021/09/04 03:16:15;;;;;;;10.10;6.70;;;;;;;;;;5074836;28;20021;-64
2021/09/04 03:18:41;;;;;;;7.78;6.20;;;;;;;;;;5074745;28;20029;-64
2021/09/04 03:21:07;;;;;;;7.75;5.93;;;;;;;;;;5053899;28;20049;-64
2021/09/04 03:23:33;;;;;;;8.07;6.20;;;;;;;;;;5054579;28;20065;-68
2021/09/04 03:25:59;;;;;;;7.78;6.38;;;;;;;;;;5054453;28;20036;-64
2021/09/04 03:28:25;;;;;;;9.00;6.70;;;;;;;;;;5054572;28;20025;-64
2021/09/04 03:30:51;;;;;;;7.13;6.18;;;;;;;;;;5054709;28;20017;-64
2021/09/04 03:33:17;;;;;;;8.63;6.68;;;;;;;;;;5036606;28;20079;-75
2021/09/04 03:35:43;;;;;;;7.97;6.03;;;;;;;;;;5054449;28;20021;-64
2021/09/04 03:38:10;;;;;;;7.75;6.18;;;;;;;;;;5054223;28;20025;-64
2021/09/04 03:40:36;;;;;;;9.63;6.25;;;;;;;;;;5054219;28;20116;-64
2021/09/04 03:43:02;;;;;;;9.18;6.25;;;;;;;;;;5054317;28;20140;-64
2021/09/04 03:45:28;;;;;;;10.50;6.75;;;;;;;;;;5036384;28;20033;-63
2021/09/04 03:47:54;;;;;;;7.55;5.75;;;;;;;;;;5054133;28;20025;-64
2021/09/04 03:50:20;;;;;;;7.85;6.53;;;;;;;;;;5054280;28;20133;-64
2021/09/04 03:52:45;;;;;;;10.43;6.55;;;;;;;;;;5053916;28;20033;-64
2021/09/04 03:55:12;;;;;;;7.78;6.50;;;;;;;;;;5053985;28;20029;-64
2021/09/04 03:57:39;;;;;;;9.05;6.63;;;;;;;;;;5036213;28;20029;-64
2021/09/04 04:00:05;;;;;;;9.48;7.35;;;;;;;;;;5054050;28;20025;-66
2021/09/04 04:02:31;;;;;;;8.55;6.13;;;;;;;;;;5054205;28;20024;-64
2021/09/04 04:04:57;;;;;;;8.10;6.38;;;;;;;;;;5053939;28;20017;-75
2021/09/04 04:07:23;;;;;;;9.20;7.00;;;;;;;;;;5053883;28;20029;-64
2021/09/04 04:09:49;;;;;;;9.93;6.60;;;;;;;;;;5053714;28;20036;-64
2021/09/04 04:12:15;;;;;;;8.70;6.28;;;;;;;;;;5053493;28;20037;-64
2021/09/04 04:14:41;;;;;;;7.30;6.20;;;;;;;;;;5053846;28;20025;-64
2021/09/04 04:17:07;;;;;;;7.60;5.85;;;;;;;;;;5053823;28;20036;-68
2021/09/04 04:19:33;;;;;;;9.75;6.95;;;;;;;;;;5053641;28;20025;-75
2021/09/04 04:21:59;;;;;;;9.52;6.72;;;;;;;;;;5063293;28;20048;-64
2021/09/04 04:24:25;;;;;;;8.75;6.25;;;;;;;;;;5073399;28;20021;-64
2021/09/04 04:26:51;;;;;;;8.38;6.53;;;;;;;;;;5055506;28;20407;-64
2021/09/04 04:29:17;;;;;;;8.75;6.38;;;;;;;;;;5073641;28;20036;-64
2021/09/04 04:31:43;;;;;;;9.50;6.63;;;;;;;;;;5073426;28;20032;-63
2021/09/04 04:34:09;;;;;;;10.40;6.75;;;;;;;;;;5073424;28;20019;-63
2021/09/04 04:36:35;;;;;;;9.23;6.78;;;;;;;;;;5073611;28;20103;-63
2021/09/04 04:39:01;;;;;;;10.00;6.60;;;;;;;;;;5073263;28;20024;-65
2021/09/04 04:41:27;;;;;;;8.98;6.68;;;;;;;;;;5072600;28;20074;-74
2021/09/04 04:43:53;;;;;;;9.48;6.57;;;;;;;;;;5073235;28;20472;-63
2021/09/04 04:46:19;;;;;;;9.00;6.55;;;;;;;;;;5073330;28;20021;-75
2021/09/04 04:48:45;;;;;;;9.35;6.32;;;;;;;;;;5073114;28;20105;-63
2021/09/04 04:51:11;;;;;;;8.80;6.70;;;;;;;;;;5072856;28;20048;-64
2021/09/04 04:53:37;;;;;;;8.43;6.78;;;;;;;;;;5072945;28;20035;-63
2021/09/04 04:56:03;;;;;;;8.68;7.32;;;;;;;;;;5072876;28;20078;-64
2021/09/04 04:58:29;;;;;;;8.35;6.40;;;;;;;;;;5073217;28;20047;-64
2021/09/04 05:00:56;;;;;;;9.38;6.35;;;;;;;;;;5073186;28;20024;-76
2021/09/04 05:03:22;;;;;;;8.98;6.70;;;;;;;;;;5055292;28;20041;-63
2021/09/04 05:05:48;;;;;;;9.90;7.00;;;;;;;;;;5055030;28;20028;-64
2021/09/04 05:08:14;;;;;;;12.18;6.95;;;;;;;;;;5072855;28;20025;-63
2021/09/04 05:10:40;;;;;;;9.50;7.22;;;;;;;;;;5072903;28;20039;-63
2021/09/04 05:13:06;;;;;;;11.00;6.97;;;;;;;;;;5072624;28;20467;-63
2021/09/04 05:15:32;;;;;;;8.07;6.28;;;;;;;;;;5073010;28;20078;-64
2021/09/04 05:17:58;;;;;;;9.38;6.75;;;;;;;;;;5054974;28;20024;-75
2021/09/04 05:20:24;;;;;;;8.80;6.00;;;;;;;;;;5054978;28;20016;-64
2021/09/04 05:22:50;;;;;;;9.70;6.90;;;;;;;;;;5072690;28;20046;-64
2021/09/04 05:25:17;;;;;;;8.25;6.78;;;;;;;;;;5072950;28;20025;-64
2021/09/04 05:27:43;;;;;;;9.77;6.38;;;;;;;;;;5073004;28;20024;-64
2021/09/04 05:30:09;;;;;;;10.48;7.20;;;;;;;;;;5072753;28;20035;-64
2021/09/04 05:32:35;;;;;;;8.32;6.60;;;;;;;;;;5072714;28;20119;-68
2021/09/04 05:35:01;;;;;;;9.70;6.72;;;;;;;;;;5072756;28;20108;-72
2021/09/04 05:37:27;;;;;;;9.48;6.47;;;;;;;;;;5062898;28;20030;-63
2021/09/04 05:39:54;;;;;;;10.07;6.38;;;;;;;;;;5052609;28;20075;-63
2021/09/04 05:42:20;;;;;;;9.85;6.97;;;;;;;;;;5052674;28;20059;-63
2021/09/04 05:44:46;;;;;;;10.93;7.10;;;;;;;;;;5052673;28;20056;-74
2021/09/04 05:47:12;;;;;;;8.98;6.78;;;;;;;;;;5052593;28;20113;-66
2021/09/04 05:49:38;;;;;;;10.18;7.00;;;;;;;;;;5052467;28;20103;-63
2021/09/04 05:52:05;;;;;;;10.43;7.30;;;;;;;;;;5053454;28;20037;-63
2021/09/04 05:54:31;;;;;;;9.77;6.93;;;;;;;;;;5056432;28;20029;-63
2021/09/04 05:56:57;;;;;;;9.20;6.55;;;;;;;;;;5038610;28;20039;-64
2021/09/04 05:59:22;;;;;;;9.40;6.82;;;;;;;;;;5056377;28;20024;-75
2021/09/04 06:01:49;;;;;;;8.93;6.38;;;;;;;;;;5056463;28;20033;-64
2021/09/04 06:04:15;;;;;;;9.27;6.80;;;;;;;;;;5056132;28;20017;-65
2021/09/04 06:06:41;;;;;;;8.90;6.95;;;;;;;;;;5056206;28;20028;-63
2021/09/04 06:09:07;;;;;;;11.00;7.00;;;;;;;;;;5056113;28;20345;-74
2021/09/04 06:11:33;;;;;;;10.70;7.30;;;;;;;;;;5055954;28;20112;-64
2021/09/04 06:13:59;;;;;;;11.80;6.85;;;;;;;;;;5056090;28;20435;-63
2021/09/04 06:16:25;;;;;;;11.23;7.45;;;;;;;;;;5056533;28;20024;-63
2021/09/04 06:18:51;;;;;;;10.20;7.22;;;;;;;;;;5045173;28;20025;-68
2021/09/04 06:21:17;;;;;;;10.77;7.05;;;;;;;;;;5040300;28;20045;-63
2021/09/04 06:23:43;;;;;;;12.05;6.55;;;;;;;;;;5056121;28;20167;-75
2021/09/04 06:26:09;;;;;;;9.77;7.00;;;;;;;;;;5055900;28;20481;-64
2021/09/04 06:28:36;;;;;;;8.95;7.00;;;;;;;;;;5055923;28;20036;-64
2021/09/04 06:31:02;;;;;;;11.20;7.60;;;;;;;;;;5055875;28;20369;-63
2021/09/04 06:33:28;;;;;;;8.70;6.70;;;;;;;;;;5055828;28;20051;-63
2021/09/04 06:35:54;;;;;;;9.02;6.68;;;;;;;;;;5055893;28;20465;-74
2021/09/04 06:38:20;;;;;;;8.55;6.60;;;;;;;;;;5055502;28;20029;-64
2021/09/04 06:40:46;;;;;;;9.05;6.80;;;;;;;;;;5055703;28;20021;-75
2021/09/04 06:43:12;;;;;;;10.05;7.10;;;;;;;;;;5055485;28;20079;-66
2021/09/04 06:45:38;;;;;;;10.77;6.93;;;;;;;;;;5037966;28;20033;-74
2021/09/04 06:48:04;;;;;;;10.55;6.72;;;;;;;;;;5055911;28;20083;-74
2021/09/04 06:50:31;;;;;;;8.65;7.00;;;;;;;;;;5055155;28;20025;-63
2021/09/04 06:52:57;;;;;;;11.35;6.95;;;;;;;;;;5055189;28;20041;-74
2021/09/04 06:55:23;;;;;;;10.90;7.55;;;;;;;;;;5055365;28;20051;-65
2021/09/04 06:57:49;;;;;;;7.57;6.20;;;;;;;;;;5055410;28;20032;-64
2021/09/04 07:00:15;;;;;;;9.75;6.97;;;;;;;;;;5055265;28;20075;-63
2021/09/04 07:02:41;;;;;;;9.23;6.80;;;;;;;;;;5054968;28;20055;-64
2021/09/04 07:05:07;;;;;;;9.00;6.60;;;;;;;;;;5054881;28;20474;-75
2021/09/04 07:07:33;;;;;;;7.45;6.32;;;;;;;;;;5055057;28;20036;-65
2021/09/04 07:09:59;;;;;;;9.05;6.57;;;;;;;;;;5037263;28;20022;-69
2021/09/04 07:12:25;;;;;;;7.70;6.30;;;;;;;;;;5054887;28;20112;-75
2021/09/04 07:14:51;;;;;;;9.88;6.55;;;;;;;;;;5037325;28;20124;-63
2021/09/04 07:17:17;;;;;;;8.57;6.15;;;;;;;;;;5054891;28;20021;-76
2021/09/04 07:19:44;;;;;;;9.90;6.82;;;;;;;;;;5054782;28;20070;-76
2021/09/04 07:22:10;;;;;;;9.25;6.80;;;;;;;;;;5054762;28;20049;-64
2021/09/04 07:24:36;;;;;;;9.05;6.80;;;;;;;;;;5054944;28;20040;-64
2021/09/04 07:27:02;;;;;;;7.68;5.97;;;;;;;;;;5054649;28;20461;-64
2021/09/04 07:29:28;;;;;;;7.28;6.43;;;;;;;;;;5054860;28;20147;-64
2021/09/04 07:31:54;;;;;;;7.68;6.18;;;;;;;;;;5054813;28;20119;-63
2021/09/04 07:34:20;;;;;;;10.73;7.35;;;;;;;;;;5054763;28;20528;-72
2021/09/04 07:36:46;;;;;;;10.27;6.93;;;;;;;;;;5054576;28;20023;-75
2021/09/04 07:39:12;;;;;;;9.10;6.32;;;;;;;;;;5054503;28;20025;-63
2021/09/04 07:41:38;;;;;;;8.32;6.30;;;;;;;;;;5054373;28;20036;-64
2021/09/04 07:44:04;;;;;;;9.05;6.30;;;;;;;;;;5054566;28;20029;-63
2021/09/04 07:46:30;;;;;;;10.48;6.30;;;;;;;;;;5036474;28;20104;-64
2021/09/04 07:48:56;;;;;;;8.80;6.15;;;;;;;;;;5036476;28;20482;-64
2021/09/04 07:51:22;;;;;;;7.95;6.57;;;;;;;;;;5054273;28;20492;-64
2021/09/04 07:53:48;;;;;;;9.70;6.65;;;;;;;;;;5054113;28;20144;-75
2021/09/04 07:56:14;;;;;;;9.07;6.38;;;;;;;;;;5054245;28;20159;-64
2021/09/04 07:58:40;;;;;;;7.05;5.95;;;;;;;;;;5054224;28;20481;-64
2021/09/04 08:01:06;;;;;;;10.18;6.75;;;;;;;;;;5054238;28;20107;-64
2021/09/04 08:03:32;;;;;;;7.82;6.38;;;;;;;;;;5053998;28;20068;-64
2021/09/04 08:05:58;;;;;;;8.73;6.30;;;;;;;;;;5054099;28;20037;-68
2021/09/04 08:08:24;;;;;;;7.90;6.63;;;;;;;;;;5054178;28;20017;-75
2021/09/04 08:10:50;;;;;;;8.32;6.07;;;;;;;;;;5054205;28;20104;-73
2021/09/04 08:13:16;;;;;;;7.50;6.30;;;;;;;;;;5053706;28;20051;-72
2021/09/04 08:15:44;;;;;;;9.20;6.53;;;;;;;;;;5053236;28;20043;-64
2021/09/04 08:18:10;;;;;;;8.82;6.40;;;;;;;;;;5053822;28;20021;-70
2021/09/04 08:20:36;;;;;;;8.50;6.47;;;;;;;;;;5053850;28;20017;-63
2021/09/04 08:23:06;;;;;;;8.75;6.05;;;;;;;;;;5053686;28;20404;-64
2021/09/04 08:25:32;;;;;;;8.65;6.20;;;;;;;;;;5054000;28;20072;-64
2021/09/04 08:27:58;;;;;;;9.60;6.72;;;;;;;;;;5053754;28;20089;-65
2021/09/04 08:30:24;;;;;;;9.10;6.07;;;;;;;;;;5053463;28;20063;-64
2021/09/04 08:32:50;;;;;;;7.50;5.78;;;;;;;;;;5035391;28;20044;-65
2021/09/04 08:35:16;;;;;;;10.55;6.72;;;;;;;;;;5053437;28;20109;-64
2021/09/04 08:37:43;;;;;;;8.23;6.53;;;;;;;;;;5053403;28;20025;-75
2021/09/04 08:40:10;;;;;;;7.75;6.20;;;;;;;;;;5035656;28;20021;-75
2021/09/04 08:42:36;;;;;;;8.85;6.43;;;;;;;;;;5053544;28;20028;-64
2021/09/04 08:45:02;;;;;;;10.85;6.13;;;;;;;;;;5053774;28;20067;-64
2021/09/04 08:47:30;;;;;;;7.13;6.03;;;;;;;;;;5053230;28;20090;-64
2021/09/04 08:49:56;;;;;;;7.68;6.32;;;;;;;;;;5053229;28;20029;-76
2021/09/04 08:52:22;;;;;;;9.15;6.68;;;;;;;;;;5035085;28;20033;-64
2021/09/04 08:54:48;;;;;;;9.18;6.80;;;;;;;;;;5053279;28;20017;-64
2021/09/04 08:57:14;;;;;;;8.00;6.32;;;;;;;;;;5053339;28;20029;-64
2021/09/04 08:59:40;;;;;;;8.60;6.57;;;;;;;;;;5053026;28;20029;-63
2021/09/04 09:02:13;;;;;;;8.40;6.15;;;;;;;;;;5052915;28;20090;-63
2021/09/04 09:04:39;;;;;;;;;;;;;;;;;;5053568;28;20013;-63
2021/09/04 09:07:05;;;;;;;7.93;5.65;;;;;;;;;;5052980;28;19995;-64
2021/09/04 09:09:31;;;;;;;8.50;6.10;;;;;;;;;;5052960;28;20037;-64
2021/09/04 09:11:58;;;;;;;8.98;6.63;;;;;;;;;;5052961;28;20025;-63
2021/09/04 09:14:25;;;;;;;9.60;6.20;;;;;;;;;;5053277;28;20055;-74
2021/09/04 09:17:01;;;;;;;8.13;5.95;;;;;;;;;;5052811;28;20021;-64
2021/09/04 09:19:28;;;;;;;8.73;6.35;;;;;;;;;;5053315;28;20025;-63
2021/09/04 09:21:56;;;;;;;7.75;5.90;;;;;;;;;;5052796;28;20124;-74
2021/09/04 09:24:23;;;;;;;7.45;5.80;;;;;;;;;;5052622;28;20381;-64
2021/09/04 09:27:00;;;;;;;8.60;5.70;;;;;;;;;;5054843;28;20024;-64
2021/09/04 09:29:32;;;;;;;8.13;6.03;;;;;;;;;;5056686;28;20491;-64
2021/09/04 09:32:11;;;;;;;7.72;6.05;;;;;;;;;;5056802;28;20136;-64
2021/09/04 09:34:41;;;;;;;10.25;6.40;;;;;;;;;;5038908;28;20021;-65
2021/09/04 09:37:08;;;;;;;7.45;5.25;;;;;;;;;;5056631;28;20398;-67
2021/09/04 09:39:38;;;;;;;9.05;5.95;;;;;;;;;;5056950;28;20072;-63
2021/09/04 09:42:05;;;;;;;8.35;5.90;;;;;;;;;;5056735;28;20029;-69
2021/09/04 09:44:32;;;;;;;7.00;5.43;;;;;;;;;;5056709;28;20044;-63
2021/09/04 09:46:59;;;;;;;9.05;6.10;;;;;;;;;;5056626;28;20547;-64
2021/09/04 09:49:37;;;;;;;7.55;5.30;;;;;;;;;;5056268;28;20047;-64
2021/09/04 09:52:08;;;;;;;9.20;6.03;;;;;;;;;;5056477;28;20729;-63
2021/09/04 09:54:34;;;;;;;11.00;6.15;;;;;;;;;;5038637;28;20036;-64
2021/09/04 09:57:02;;;;;;;6.82;5.88;;;;;;;;;;5056301;28;20036;-64
2021/09/04 09:59:28;;;;;;;8.57;6.13;;;;;;;;;;5056498;28;20020;-75
2021/09/04 10:01:59;;;;;;;7.95;5.80;;;;;;;;;;5056270;28;20032;-63
2021/09/04 10:04:26;;;;;;;8.15;5.70;;;;;;;;;;5055975;28;20029;-63
2021/09/04 10:06:53;;;;;;;7.28;5.75;;;;;;;;;;5056391;28;20449;-63
2021/09/04 10:09:22;;;;;;;10.10;5.95;;;;;;;;;;5038244;28;20127;-63
2021/09/04 10:11:48;;;;;;;6.72;5.80;;;;;;;;;;5038455;28;20032;-63
2021/09/04 10:14:14;;;;;;;8.50;5.90;;;;;;;;;;5038152;28;20033;-63
2021/09/04 10:16:41;;;;;;;8.90;5.85;;;;;;;;;;5056093;28;20078;-63
2021/09/04 10:19:07;;;;;;;9.27;6.00;;;;;;;;;;5055859;28;20032;-63
2021/09/04 10:21:38;;;;;;;7.88;5.20;;;;;;;;;;5055727;28;20146;-63
2021/09/04 10:24:04;;;;;;;7.22;5.32;;;;;;;;;;5055675;28;20171;-63
2021/09/04 10:26:31;;;;;;;7.93;5.55;;;;;;;;;;5056027;28;20025;-75
2021/09/04 10:29:17;;;;;;;7.07;5.28;;;;;;;;;;5055671;28;20032;-63
2021/09/04 10:31:48;;;;;;;9.13;5.40;;;;;;;;;;5055683;28;20033;-64
2021/09/04 10:34:18;;;;;;;8.13;5.22;;;;;;;;;;5055493;28;20434;-63
2021/09/04 10:36:57;;;;;;;8.50;5.57;;;;;;;;;;5055525;28;20021;-63
2021/09/04 10:39:23;;;;;;;7.97;5.80;;;;;;;;;;5054844;28;20028;-63
2021/09/04 10:41:50;;;;;;;7.78;5.80;;;;;;;;;;5055689;28;20062;-63
2021/09/04 10:44:16;;;;;;;6.38;5.47;;;;;;;;;;5055575;28;20162;-63
2021/09/04 10:46:43;;;;;;;8.30;5.57;;;;;;;;;;5055682;28;20029;-64
2021/09/04 10:49:09;;;;;;;8.80;6.22;;;;;;;;;;5055394;28;20083;-76
2021/09/04 10:51:45;;;;;;;6.60;5.28;;;;;;;;;;5055305;28;20037;-63
2021/09/04 10:54:11;;;;;;;5.88;4.72;;;;;;;;;;5055358;28;20095;-64
2021/09/04 10:56:40;;;;;;;8.60;5.50;;;;;;;;;;5055354;28;20023;-63
2021/09/04 10:59:05;;;;;;;11.38;6.05;;;;;;;;;;5037313;28;20437;-68
2021/09/04 11:01:38;;;;;;;8.15;6.10;;;;;;;;;;5055065;28;20496;-63
2021/09/04 11:04:04;;;;;;;7.90;5.35;;;;;;;;;;5055080;28;20029;-64
2021/09/04 11:06:30;;;;;;;6.63;5.40;;;;;;;;;;5055062;28;20021;-76
2021/09/04 11:08:56;;;;;;;9.07;5.35;;;;;;;;;;5036990;28;20472;-63
2021/09/04 11:11:27;;;;;;;6.78;5.38;;;;;;;;;;5054963;28;20025;-64
2021/09/04 11:13:53;;;;;;;8.93;5.90;;;;;;;;;;5055082;28;20033;-64
2021/09/04 11:16:28;;;;;;;11.13;5.55;;;;;;;;;;5037024;28;20032;-63
2021/09/04 11:18:55;;;;;;;7.85;5.78;;;;;;;;;;5054912;28;20061;-63
2021/09/04 11:21:21;;;;;;;7.65;5.38;;;;;;;;;;5041189;28;20556;-67
2021/09/04 11:23:50;;;;;;;8.52;5.68;;;;;;;;;;5074606;28;20516;-63
2021/09/04 11:26:16;;;;;;;7.57;5.70;;;;;;;;;;5074938;28;20040;-66
2021/09/04 11:28:42;;;;;;;9.05;6.18;;;;;;;;;;5074658;28;20500;-63
2021/09/04 11:31:08;;;;;;;8.55;5.95;;;;;;;;;;5074707;28;20017;-65
2021/09/04 11:33:34;;;;;;;12.52;6.50;;;;;;;;;;5074658;28;20127;-64
2021/09/04 11:36:00;;;;;;;11.55;6.53;;;;;;;;;;5074985;28;20111;-63
2021/09/04 11:38:26;;;;;;;9.65;6.28;;;;;;;;;;5074168;28;20028;-76
2021/09/04 11:40:53;;;;;;;8.73;6.13;;;;;;;;;;5074589;28;20024;-64
2021/09/04 11:43:25;;;;;;;9.32;5.68;;;;;;;;;;5074486;28;20036;-76
2021/09/04 11:45:51;;;;;;;;;;;;;;;;;;5074679;28;20147;-64
2021/09/04 11:48:17;;;;;;;8.55;6.20;;;;;;;;;;5074185;28;19996;-64
2021/09/04 11:50:43;;;;;;;12.25;6.55;;;;;;;;;;5074181;28;20380;-64
2021/09/04 11:53:10;;;;;;;9.70;5.82;;;;;;;;;;5073929;28;20037;-63
2021/09/04 11:55:37;;;;;;;13.60;6.40;;;;;;;;;;5074190;28;20021;-63
2021/09/04 11:58:04;;;;;;;7.32;5.88;;;;;;;;;;5074432;28;20028;-64
2021/09/04 12:00:30;;;;;;;9.80;6.30;;;;;;;;;;5056005;28;20028;-73
2021/09/04 12:03:00;;;;;;;10.45;6.22;;;;;;;;;;5073973;28;20035;-76
2021/09/04 12:05:30;;;;;;;8.75;6.13;;;;;;;;;;5073878;28;20460;-64
2021/09/04 12:08:01;;;;;;;8.88;6.38;;;;;;;;;;5073906;28;20024;-76
2021/09/04 12:10:28;;;;;;;10.98;6.25;;;;;;;;;;5056003;28;20024;-64
2021/09/04 12:12:55;;;;;;;8.73;6.30;;;;;;;;;;5073603;28;20033;-63
2021/09/04 12:15:22;;;;;;;9.88;6.22;;;;;;;;;;5073737;28;20060;-65
2021/09/04 12:17:52;;;;;;;8.23;6.40;;;;;;;;;;5073977;28;20032;-63
2021/09/04 12:20:19;;;;;;;11.20;6.95;;;;;;;;;;5073791;28;20187;-63
2021/09/04 12:22:45;;;;;;;8.35;5.97;;;;;;;;;;5073278;28;20075;-63
2021/09/04 12:25:24;;;;;;;10.80;6.88;;;;;;;;;;5073814;28;20383;-76
2021/09/04 12:27:57;;;;;;;10.15;6.53;;;;;;;;;;5073872;28;20025;-77
2021/09/04 12:30:23;;;;;;;9.95;6.38;;;;;;;;;;5073565;28;20489;-63
2021/09/04 12:32:48;;;;;;;13.30;6.47;;;;;;;;;;5055616;28;20082;-75
2021/09/04 12:35:14;;;;;;;9.15;6.20;;;;;;;;;;5055834;28;20677;-64
2021/09/04 12:37:40;;;;;;;9.80;6.82;;;;;;;;;;5073243;28;20028;-77
2021/09/04 12:40:11;;;;;;;7.70;6.50;;;;;;;;;;5073357;28;20028;-64
2021/09/04 12:42:37;;;;;;;10.13;6.90;;;;;;;;;;5073430;28;20020;-76
2021/09/04 12:45:08;;;;;;;9.85;7.07;;;;;;;;;;5073337;28;20016;-63
2021/09/04 12:47:44;;;;;;;8.00;6.07;;;;;;;;;;5073227;28;20418;-64
2021/09/04 12:50:23;;;;;;;10.95;6.95;;;;;;;;;;5073514;28;20059;-63
2021/09/04 12:53:06;;;;;;;11.60;6.88;;;;;;;;;;5073107;28;20033;-63
2021/09/04 12:55:51;;;;;;;10.32;6.57;;;;;;;;;;5073640;28;20480;-64
2021/09/04 12:58:17;;;;;;;8.70;6.10;;;;;;;;;;5073033;28;20033;-63
2021/09/04 13:00:43;;;;;;;9.05;6.10;;;;;;;;;;5072618;28;20028;-64
2021/09/04 13:03:09;;;;;;;9.57;6.05;;;;;;;;;;5073024;28;20029;-64
2021/09/04 13:05:35;;;;;;;10.20;6.60;;;;;;;;;;5073211;28;20099;-63
2021/09/04 13:08:03;;;;;;;9.00;6.88;;;;;;;;;;5072954;28;20032;-64
2021/09/04 13:10:29;;;;;;;9.90;6.05;;;;;;;;;;5073297;28;20105;-74
2021/09/04 13:12:55;;;;;;;10.20;6.13;;;;;;;;;;5072836;28;20488;-64
2021/09/04 13:15:22;;;;;;;10.52;6.20;;;;;;;;;;5072936;28;20031;-76
2021/09/04 13:17:48;;;;;;;9.00;6.47;;;;;;;;;;5052298;28;20094;-64
2021/09/04 13:20:15;;;;;;;9.70;6.38;;;;;;;;;;5052898;28;20021;-65
2021/09/04 13:22:43;;;;;;;9.07;6.57;;;;;;;;;;5052579;28;20563;-64
2021/09/04 13:25:10;;;;;;;8.98;6.22;;;;;;;;;;5052667;28;20032;-64
2021/09/04 13:27:37;;;;;;;7.90;6.30;;;;;;;;;;5034970;28;20025;-75
2021/09/04 13:30:04;;;;;;;10.45;6.90;;;;;;;;;;5052806;28;20100;-68
2021/09/04 13:32:30;;;;;;;11.60;7.03;;;;;;;;;;5052643;28;20044;-76
2021/09/04 13:34:56;;;;;;;9.63;6.40;;;;;;;;;;5035164;28;20021;-63
2021/09/04 13:37:22;;;;;;;8.60;6.63;;;;;;;;;;5052511;28;20031;-64
2021/09/04 13:39:48;;;;;;;11.00;6.60;;;;;;;;;;5052465;28;20032;-64
2021/09/04 13:42:14;;;;;;;10.05;6.70;;;;;;;;;;5052680;28;20029;-64
2021/09/04 13:44:40;;;;;;;9.02;6.25;;;;;;;;;;5034758;28;20445;-62
2021/09/04 13:47:05;;;;;;;8.48;5.95;;;;;;;;;;5052558;28;20021;-64
2021/09/04 13:49:31;;;;;;;10.50;6.40;;;;;;;;;;5052645;28;20029;-63
2021/09/04 13:51:57;;;;;;;7.50;5.88;;;;;;;;;;5052660;28;20064;-63
2021/09/04 13:54:23;;;;;;;8.38;5.72;;;;;;;;;;5034863;28;20021;-74
2021/09/04 13:56:49;;;;;;;9.38;6.15;;;;;;;;;;5034779;28;20029;-76
2021/09/04 13:59:15;;;;;;;10.68;6.50;;;;;;;;;;5034803;28;20468;-64
2021/09/04 14:01:41;;;;;;;11.63;6.80;;;;;;;;;;5052611;28;20032;-72
2021/09/04 14:04:07;;;;;;;9.68;6.57;;;;;;;;;;5052764;28;20025;-72
2021/09/04 14:06:33;;;;;;;8.27;6.18;;;;;;;;;;5052504;28;20036;-64
2021/09/04 14:09:00;;;;;;;11.60;6.43;;;;;;;;;;5052328;28;20025;-70
2021/09/04 14:11:26;;;;;;;10.95;6.75;;;;;;;;;;5052182;28;20032;-64
2021/09/04 14:13:52;;;;;;;10.30;6.50;;;;;;;;;;5054277;28;20036;-70
2021/09/04 14:16:18;;;;;;;14.88;7.22;;;;;;;;;;5038146;28;20129;-64
2021/09/04 14:18:44;;;;;;;11.30;6.70;;;;;;;;;;5056007;28;20529;-64
2021/09/04 14:21:10;;;;;;;8.88;6.20;;;;;;;;;;5058492;28;20045;-64
2021/09/04 14:23:36;;;;;;;8.98;5.95;;;;;;;;;;5076064;28;20059;-64
2021/09/04 14:26:02;;;;;;;13.57;6.20;;;;;;;;;;5075781;28;20067;-64
2021/09/04 14:28:28;;;;;;;9.40;5.97;;;;;;;;;;5075716;28;20021;-66
2021/09/04 14:30:54;;;;;;;9.02;6.00;;;;;;;;;;5058259;28;20119;-73
2021/09/04 14:33:21;;;;;;;9.43;5.72;;;;;;;;;;5075759;28;20139;-63
2021/09/04 14:35:47;;;;;;;9.00;6.25;;;;;;;;;;5057810;28;20033;-77
2021/09/04 14:38:13;;;;;;;9.77;5.97;;;;;;;;;;5075455;28;20146;-64